sensor_id;sensor_type;location;lat;lon;timestamp;temperature;humidity
13572;DHT22;6857;53.484;10.216;2022-07-29T00:00:28;14.50;99.90
13572;DHT22;6857;53.484;10.216;2022-07-29T00:02:54;14.50;99.90
13572;DHT22;6857;53.484;10.216;2022-07-29T00:05:20;14.50;99.90
13572;DHT22;6857;53.484;10.216;2022-07-29T00:07:45;14.40;99.90
13572;DHT22;6857;53.484;10.216;2022-07-29T00:10:11;14.50;99.90
13572;DHT22;6857;53.484;10.216;2022-07-29T00:12:36;14.50;99.90
13572;DHT22;6857;53.484;10.216;2022-07-29T00:15:03;14.50;99.90
13572;DHT22;6857;53.484;10.216;2022-07-29T00:17:29;14.40;99.90
13572;DHT22;6857;53.484;10.216;2022-07-29T00:19:55;14.40;99.90
13572;DHT22;6857;53.484;10.216;2022-07-29T00:22:20;14.40;99.90
13572;DHT22;6857;53.484;10.216;2022-07-29T00:24:49;14.40;99.90
13572;DHT22;6857;53.484;10.216;2022-07-29T00:27:15;14.30;99.90
13572;DHT22;6857;53.484;10.216;2022-07-29T00:29:40;14.30;99.90
13572;DHT22;6857;53.484;10.216;2022-07-29T00:32:06;14.30;99.90
13572;DHT22;6857;53.484;10.216;2022-07-29T00:34:31;14.30;99.90
13572;DHT22;6857;53.484;10.216;2022-07-29T00:37:16;14.20;99.90
13572;DHT22;6857;53.484;10.216;2022-07-29T00:39:42;14.20;99.90
13572;DHT22;6857;53.484;10.216;2022-07-29T00:42:07;14.20;99.90
13572;DHT22;6857;53.484;10.216;2022-07-29T00:44:40;14.10;99.90
13572;DHT22;6857;53.484;10.216;2022-07-29T00:47:07;14.10;99.90
13572;DHT22;6857;53.484;10.216;2022-07-29T00:49:34;14.10;99.90
13572;DHT22;6857;53.484;10.216;2022-07-29T00:52:01;14.10;99.90
13572;DHT22;6857;53.484;10.216;2022-07-29T00:54:27;14.10;99.90
13572;DHT22;6857;53.484;10.216;2022-07-29T00:56:55;14.10;99.90
13572;DHT22;6857;53.484;10.216;2022-07-29T00:59:21;14.00;99.90
13572;DHT22;6857;53.484;10.216;2022-07-29T01:01:47;14.00;99.90
13572;DHT22;6857;53.484;10.216;2022-07-29T01:04:12;14.10;99.90
13572;DHT22;6857;53.484;10.216;2022-07-29T01:06:38;14.10;99.90
13572;DHT22;6857;53.484;10.216;2022-07-29T01:09:03;14.10;99.90
13572;DHT22;6857;53.484;10.216;2022-07-29T01:11:29;14.10;99.90
13572;DHT22;6857;53.484;10.216;2022-07-29T01:13:55;14.00;99.90
13572;DHT22;6857;53.484;10.216;2022-07-29T01:16:31;14.10;99.90
13572;DHT22;6857;53.484;10.216;2022-07-29T01:19:20;14.00;99.90
13572;DHT22;6857;53.484;10.216;2022-07-29T01:21:54;14.10;99.90
13572;DHT22;6857;53.484;10.216;2022-07-29T01:24:34;14.00;99.90
13572;DHT22;6857;53.484;10.216;2022-07-29T01:27:26;14.00;99.90
13572;DHT22;6857;53.484;10.216;2022-07-29T01:29:59;14.00;99.90
13572;DHT22;6857;53.484;10.216;2022-07-29T01:32:29;14.00;99.90
13572;DHT22;6857;53.484;10.216;2022-07-29T01:35:10;14.00;99.90
13572;DHT22;6857;53.484;10.216;2022-07-29T01:40:34;14.00;99.90
13572;DHT22;6857;53.484;10.216;2022-07-29T01:43:09;14.00;99.90
13572;DHT22;6857;53.484;10.216;2022-07-29T01:46:00;14.00;99.90
13572;DHT22;6857;53.484;10.216;2022-07-29T01:48:47;14.00;99.90
13572;DHT22;6857;53.484;10.216;2022-07-29T01:51:20;14.00;99.90
13572;DHT22;6857;53.484;10.216;2022-07-29T01:54:05;14.00;99.90
13572;DHT22;6857;53.484;10.216;2022-07-29T01:56:32;14.00;99.90
13572;DHT22;6857;53.484;10.216;2022-07-29T01:59:01;14.00;99.90
13572;DHT22;6857;53.484;10.216;2022-07-29T02:01:31;14.00;99.90
13572;DHT22;6857;53.484;10.216;2022-07-29T02:04:00;14.00;99.90
13572;DHT22;6857;53.484;10.216;2022-07-29T02:06:27;13.90;99.90
13572;DHT22;6857;53.484;10.216;2022-07-29T02:08:56;13.90;99.90
13572;DHT22;6857;53.484;10.216;2022-07-29T02:11:23;14.00;99.90
13572;DHT22;6857;53.484;10.216;2022-07-29T02:13:51;13.90;99.90
13572;DHT22;6857;53.484;10.216;2022-07-29T02:16:20;14.00;99.90
13572;DHT22;6857;53.484;10.216;2022-07-29T02:18:48;14.00;99.90
13572;DHT22;6857;53.484;10.216;2022-07-29T02:21:18;14.00;99.90
13572;DHT22;6857;53.484;10.216;2022-07-29T02:23:46;14.10;99.90
13572;DHT22;6857;53.484;10.216;2022-07-29T02:26:13;14.10;99.90
13572;DHT22;6857;53.484;10.216;2022-07-29T02:28:40;14.10;99.90
13572;DHT22;6857;53.484;10.216;2022-07-29T02:31:07;14.10;99.90
13572;DHT22;6857;53.484;10.216;2022-07-29T02:33:34;14.20;99.90
13572;DHT22;6857;53.484;10.216;2022-07-29T02:36:00;14.20;99.90
13572;DHT22;6857;53.484;10.216;2022-07-29T02:38:27;14.20;99.90
13572;DHT22;6857;53.484;10.216;2022-07-29T02:41:16;14.20;99.90
13572;DHT22;6857;53.484;10.216;2022-07-29T02:43:45;14.20;99.90
13572;DHT22;6857;53.484;10.216;2022-07-29T02:46:15;14.20;99.90
13572;DHT22;6857;53.484;10.216;2022-07-29T02:48:55;14.20;99.90
13572;DHT22;6857;53.484;10.216;2022-07-29T02:51:40;14.20;99.90
13572;DHT22;6857;53.484;10.216;2022-07-29T02:54:07;14.10;99.90
13572;DHT22;6857;53.484;10.216;2022-07-29T02:56:34;14.10;99.90
13572;DHT22;6857;53.484;10.216;2022-07-29T02:59:05;14.20;99.90
13572;DHT22;6857;53.484;10.216;2022-07-29T03:01:32;14.20;99.90
13572;DHT22;6857;53.484;10.216;2022-07-29T03:04:03;14.20;99.90
13572;DHT22;6857;53.484;10.216;2022-07-29T03:06:30;14.30;99.90
13572;DHT22;6857;53.484;10.216;2022-07-29T03:08:59;14.20;99.90
13572;DHT22;6857;53.484;10.216;2022-07-29T03:11:25;14.30;99.90
13572;DHT22;6857;53.484;10.216;2022-07-29T03:13:51;14.30;99.90
13572;DHT22;6857;53.484;10.216;2022-07-29T03:16:19;14.30;99.90
13572;DHT22;6857;53.484;10.216;2022-07-29T03:18:45;14.30;99.90
13572;DHT22;6857;53.484;10.216;2022-07-29T03:21:10;14.30;99.90
13572;DHT22;6857;53.484;10.216;2022-07-29T03:23:36;14.30;99.90
13572;DHT22;6857;53.484;10.216;2022-07-29T03:26:02;14.30;99.90
13572;DHT22;6857;53.484;10.216;2022-07-29T03:28:27;14.30;99.90
13572;DHT22;6857;53.484;10.216;2022-07-29T03:30:53;14.30;99.90
13572;DHT22;6857;53.484;10.216;2022-07-29T03:33:19;14.30;99.90
13572;DHT22;6857;53.484;10.216;2022-07-29T03:35:44;14.30;99.90
13572;DHT22;6857;53.484;10.216;2022-07-29T03:38:10;14.30;99.90
13572;DHT22;6857;53.484;10.216;2022-07-29T03:40:46;14.30;99.90
13572;DHT22;6857;53.484;10.216;2022-07-29T03:43:15;14.40;99.90
13572;DHT22;6857;53.484;10.216;2022-07-29T03:45:47;14.30;99.90
13572;DHT22;6857;53.484;10.216;2022-07-29T03:48:16;14.30;99.90
13572;DHT22;6857;53.484;10.216;2022-07-29T03:50:43;14.40;99.90
13572;DHT22;6857;53.484;10.216;2022-07-29T03:53:09;14.30;99.90
13572;DHT22;6857;53.484;10.216;2022-07-29T03:55:57;14.30;99.90
13572;DHT22;6857;53.484;10.216;2022-07-29T03:58:26;14.30;99.90
13572;DHT22;6857;53.484;10.216;2022-07-29T04:00:53;14.30;99.90
13572;DHT22;6857;53.484;10.216;2022-07-29T04:03:20;14.30;99.90
13572;DHT22;6857;53.484;10.216;2022-07-29T04:05:58;14.30;99.90
13572;DHT22;6857;53.484;10.216;2022-07-29T04:08:23;14.30;99.90
13572;DHT22;6857;53.484;10.216;2022-07-29T04:10:49;14.30;99.90
13572;DHT22;6857;53.484;10.216;2022-07-29T04:13:15;14.30;99.90
13572;DHT22;6857;53.484;10.216;2022-07-29T04:15:40;14.30;99.90
13572;DHT22;6857;53.484;10.216;2022-07-29T04:18:06;14.40;99.90
13572;DHT22;6857;53.484;10.216;2022-07-29T04:20:31;14.40;99.90
13572;DHT22;6857;53.484;10.216;2022-07-29T04:22:57;14.40;99.90
13572;DHT22;6857;53.484;10.216;2022-07-29T04:25:22;14.50;99.90
13572;DHT22;6857;53.484;10.216;2022-07-29T04:27:48;14.50;99.90
13572;DHT22;6857;53.484;10.216;2022-07-29T04:30:26;14.60;99.90
13572;DHT22;6857;53.484;10.216;2022-07-29T04:32:52;14.70;99.90
13572;DHT22;6857;53.484;10.216;2022-07-29T04:35:19;14.80;99.90
13572;DHT22;6857;53.484;10.216;2022-07-29T04:37:44;14.80;99.90
13572;DHT22;6857;53.484;10.216;2022-07-29T04:40:10;14.80;99.90
13572;DHT22;6857;53.484;10.216;2022-07-29T04:42:37;14.90;99.90
13572;DHT22;6857;53.484;10.216;2022-07-29T04:45:03;14.90;99.90
13572;DHT22;6857;53.484;10.216;2022-07-29T04:47:29;15.00;99.90
13572;DHT22;6857;53.484;10.216;2022-07-29T04:49:54;15.10;99.90
13572;DHT22;6857;53.484;10.216;2022-07-29T04:52:21;15.10;99.90
13572;DHT22;6857;53.484;10.216;2022-07-29T04:54:47;15.10;99.90
13572;DHT22;6857;53.484;10.216;2022-07-29T04:57:13;15.20;99.90
13572;DHT22;6857;53.484;10.216;2022-07-29T04:59:38;15.20;99.90
13572;DHT22;6857;53.484;10.216;2022-07-29T05:02:04;15.30;99.90
13572;DHT22;6857;53.484;10.216;2022-07-29T05:04:29;15.30;99.90
13572;DHT22;6857;53.484;10.216;2022-07-29T05:06:55;15.30;99.90
13572;DHT22;6857;53.484;10.216;2022-07-29T05:09:20;15.50;99.90
13572;DHT22;6857;53.484;10.216;2022-07-29T05:11:46;15.50;99.90
13572;DHT22;6857;53.484;10.216;2022-07-29T05:14:11;15.50;99.90
13572;DHT22;6857;53.484;10.216;2022-07-29T05:16:37;15.50;99.90
13572;DHT22;6857;53.484;10.216;2022-07-29T05:19:04;15.60;99.90
13572;DHT22;6857;53.484;10.216;2022-07-29T05:21:30;15.60;99.90
13572;DHT22;6857;53.484;10.216;2022-07-29T05:23:55;15.60;99.90
13572;DHT22;6857;53.484;10.216;2022-07-29T05:26:21;15.60;99.90
13572;DHT22;6857;53.484;10.216;2022-07-29T05:28:46;15.70;99.90
13572;DHT22;6857;53.484;10.216;2022-07-29T05:31:12;15.70;99.90
13572;DHT22;6857;53.484;10.216;2022-07-29T05:33:40;15.70;99.90
13572;DHT22;6857;53.484;10.216;2022-07-29T05:36:06;15.70;99.90
13572;DHT22;6857;53.484;10.216;2022-07-29T05:38:32;15.70;99.90
13572;DHT22;6857;53.484;10.216;2022-07-29T05:40:58;15.70;99.90
13572;DHT22;6857;53.484;10.216;2022-07-29T05:43:25;15.90;99.90
13572;DHT22;6857;53.484;10.216;2022-07-29T05:45:51;16.00;99.90
13572;DHT22;6857;53.484;10.216;2022-07-29T05:48:16;16.20;99.90
13572;DHT22;6857;53.484;10.216;2022-07-29T05:50:42;16.30;99.90
13572;DHT22;6857;53.484;10.216;2022-07-29T05:53:08;16.60;99.90
13572;DHT22;6857;53.484;10.216;2022-07-29T05:55:34;17.00;99.90
13572;DHT22;6857;53.484;10.216;2022-07-29T05:57:59;17.20;99.90
13572;DHT22;6857;53.484;10.216;2022-07-29T06:00:25;17.20;99.90
13572;DHT22;6857;53.484;10.216;2022-07-29T06:02:50;17.30;99.90
13572;DHT22;6857;53.484;10.216;2022-07-29T06:05:16;17.40;99.90
13572;DHT22;6857;53.484;10.216;2022-07-29T06:07:42;17.40;99.90
13572;DHT22;6857;53.484;10.216;2022-07-29T06:10:08;17.40;99.90
13572;DHT22;6857;53.484;10.216;2022-07-29T06:12:34;17.40;99.90
13572;DHT22;6857;53.484;10.216;2022-07-29T06:14:59;17.40;99.90
13572;DHT22;6857;53.484;10.216;2022-07-29T06:17:25;17.50;99.90
13572;DHT22;6857;53.484;10.216;2022-07-29T06:19:51;17.50;99.90
13572;DHT22;6857;53.484;10.216;2022-07-29T06:22:16;17.50;99.90
13572;DHT22;6857;53.484;10.216;2022-07-29T06:24:42;17.50;99.90
13572;DHT22;6857;53.484;10.216;2022-07-29T06:27:12;17.50;99.90
13572;DHT22;6857;53.484;10.216;2022-07-29T06:29:38;17.60;99.90
13572;DHT22;6857;53.484;10.216;2022-07-29T06:32:04;17.50;99.90
13572;DHT22;6857;53.484;10.216;2022-07-29T06:34:30;17.60;99.90
13572;DHT22;6857;53.484;10.216;2022-07-29T06:36:55;17.60;99.90
13572;DHT22;6857;53.484;10.216;2022-07-29T06:39:21;17.60;99.90
13572;DHT22;6857;53.484;10.216;2022-07-29T06:41:47;17.60;99.90
13572;DHT22;6857;53.484;10.216;2022-07-29T06:44:14;17.70;99.90
13572;DHT22;6857;53.484;10.216;2022-07-29T06:46:40;17.80;99.90
13572;DHT22;6857;53.484;10.216;2022-07-29T06:49:05;17.70;99.90
13572;DHT22;6857;53.484;10.216;2022-07-29T06:51:31;17.80;99.90
13572;DHT22;6857;53.484;10.216;2022-07-29T06:53:57;17.80;99.90
13572;DHT22;6857;53.484;10.216;2022-07-29T06:56:22;17.90;99.90
13572;DHT22;6857;53.484;10.216;2022-07-29T06:58:48;18.00;99.90
13572;DHT22;6857;53.484;10.216;2022-07-29T07:01:14;18.10;99.90
13572;DHT22;6857;53.484;10.216;2022-07-29T07:03:39;18.20;99.90
13572;DHT22;6857;53.484;10.216;2022-07-29T07:06:05;18.30;99.90
13572;DHT22;6857;53.484;10.216;2022-07-29T07:08:30;18.40;99.90
13572;DHT22;6857;53.484;10.216;2022-07-29T07:10:56;18.40;99.90
13572;DHT22;6857;53.484;10.216;2022-07-29T07:13:22;18.40;99.90
13572;DHT22;6857;53.484;10.216;2022-07-29T07:15:48;18.50;99.90
13572;DHT22;6857;53.484;10.216;2022-07-29T07:18:14;18.60;99.90
13572;DHT22;6857;53.484;10.216;2022-07-29T07:20:40;18.60;99.90
13572;DHT22;6857;53.484;10.216;2022-07-29T07:23:06;18.60;99.90
13572;DHT22;6857;53.484;10.216;2022-07-29T07:25:31;18.60;99.90
13572;DHT22;6857;53.484;10.216;2022-07-29T07:27:57;18.60;99.90
13572;DHT22;6857;53.484;10.216;2022-07-29T07:30:23;18.80;99.90
13572;DHT22;6857;53.484;10.216;2022-07-29T07:32:48;18.80;99.90
13572;DHT22;6857;53.484;10.216;2022-07-29T07:35:14;18.80;99.90
13572;DHT22;6857;53.484;10.216;2022-07-29T07:37:40;18.90;99.90
13572;DHT22;6857;53.484;10.216;2022-07-29T07:40:09;19.00;99.90
13572;DHT22;6857;53.484;10.216;2022-07-29T07:42:37;19.10;99.90
13572;DHT22;6857;53.484;10.216;2022-07-29T07:45:03;19.20;99.90
13572;DHT22;6857;53.484;10.216;2022-07-29T07:47:30;19.20;99.90
13572;DHT22;6857;53.484;10.216;2022-07-29T07:49:55;19.30;99.90
13572;DHT22;6857;53.484;10.216;2022-07-29T07:52:21;19.50;99.90
13572;DHT22;6857;53.484;10.216;2022-07-29T07:54:48;19.60;99.90
13572;DHT22;6857;53.484;10.216;2022-07-29T07:57:14;19.80;99.90
13572;DHT22;6857;53.484;10.216;2022-07-29T07:59:40;19.90;99.90
13572;DHT22;6857;53.484;10.216;2022-07-29T08:02:06;20.00;99.90
13572;DHT22;6857;53.484;10.216;2022-07-29T08:04:33;20.10;99.90
13572;DHT22;6857;53.484;10.216;2022-07-29T08:06:58;20.10;99.90
13572;DHT22;6857;53.484;10.216;2022-07-29T08:09:26;20.10;99.90
13572;DHT22;6857;53.484;10.216;2022-07-29T08:11:52;20.10;99.90
13572;DHT22;6857;53.484;10.216;2022-07-29T08:14:19;20.10;99.90
13572;DHT22;6857;53.484;10.216;2022-07-29T08:16:44;20.30;99.90
13572;DHT22;6857;53.484;10.216;2022-07-29T08:19:10;20.30;99.90
13572;DHT22;6857;53.484;10.216;2022-07-29T08:21:35;20.50;99.90
13572;DHT22;6857;53.484;10.216;2022-07-29T08:24:01;20.60;99.90
13572;DHT22;6857;53.484;10.216;2022-07-29T08:26:46;20.50;99.90
13572;DHT22;6857;53.484;10.216;2022-07-29T08:29:12;20.40;99.90
13572;DHT22;6857;53.484;10.216;2022-07-29T08:31:38;20.40;99.90
13572;DHT22;6857;53.484;10.216;2022-07-29T08:34:04;20.50;99.90
13572;DHT22;6857;53.484;10.216;2022-07-29T08:36:30;20.60;99.90
13572;DHT22;6857;53.484;10.216;2022-07-29T08:38:56;20.70;99.90
13572;DHT22;6857;53.484;10.216;2022-07-29T08:41:22;20.90;99.90
13572;DHT22;6857;53.484;10.216;2022-07-29T08:43:49;21.00;99.90
13572;DHT22;6857;53.484;10.216;2022-07-29T08:46:15;21.00;99.90
13572;DHT22;6857;53.484;10.216;2022-07-29T08:48:41;20.90;99.90
13572;DHT22;6857;53.484;10.216;2022-07-29T08:51:07;20.90;99.90
13572;DHT22;6857;53.484;10.216;2022-07-29T08:53:33;20.90;99.90
13572;DHT22;6857;53.484;10.216;2022-07-29T08:55:59;20.90;99.90
13572;DHT22;6857;53.484;10.216;2022-07-29T08:58:27;21.00;99.90
13572;DHT22;6857;53.484;10.216;2022-07-29T09:00:56;21.10;99.90
13572;DHT22;6857;53.484;10.216;2022-07-29T09:03:30;21.10;99.90
13572;DHT22;6857;53.484;10.216;2022-07-29T09:05:58;21.20;99.90
13572;DHT22;6857;53.484;10.216;2022-07-29T09:08:25;21.40;99.90
13572;DHT22;6857;53.484;10.216;2022-07-29T09:10:51;21.60;99.90
13572;DHT22;6857;53.484;10.216;2022-07-29T09:13:17;21.60;99.90
13572;DHT22;6857;53.484;10.216;2022-07-29T09:15:44;21.50;99.90
13572;DHT22;6857;53.484;10.216;2022-07-29T09:18:10;21.50;99.90
13572;DHT22;6857;53.484;10.216;2022-07-29T09:20:35;21.60;99.90
13572;DHT22;6857;53.484;10.216;2022-07-29T09:23:19;21.80;99.90
13572;DHT22;6857;53.484;10.216;2022-07-29T09:25:45;21.90;99.90
13572;DHT22;6857;53.484;10.216;2022-07-29T09:28:13;22.10;99.90
13572;DHT22;6857;53.484;10.216;2022-07-29T09:30:57;22.30;99.90
13572;DHT22;6857;53.484;10.216;2022-07-29T09:33:33;22.50;99.90
13572;DHT22;6857;53.484;10.216;2022-07-29T09:36:05;22.80;99.90
13572;DHT22;6857;53.484;10.216;2022-07-29T09:38:32;22.90;99.90
13572;DHT22;6857;53.484;10.216;2022-07-29T09:41:00;23.00;99.90
13572;DHT22;6857;53.484;10.216;2022-07-29T09:43:26;23.20;99.90
13572;DHT22;6857;53.484;10.216;2022-07-29T09:45:52;23.20;99.90
13572;DHT22;6857;53.484;10.216;2022-07-29T09:48:21;23.30;99.90
13572;DHT22;6857;53.484;10.216;2022-07-29T09:50:48;23.50;99.90
13572;DHT22;6857;53.484;10.216;2022-07-29T09:55:55;24.00;99.90
13572;DHT22;6857;53.484;10.216;2022-07-29T09:58:21;24.10;99.90
13572;DHT22;6857;53.484;10.216;2022-07-29T10:00:50;24.10;99.90
13572;DHT22;6857;53.484;10.216;2022-07-29T10:03:16;24.30;99.80
13572;DHT22;6857;53.484;10.216;2022-07-29T10:05:43;24.40;99.00
13572;DHT22;6857;53.484;10.216;2022-07-29T10:08:09;24.30;98.40
13572;DHT22;6857;53.484;10.216;2022-07-29T10:10:37;24.10;98.50
13572;DHT22;6857;53.484;10.216;2022-07-29T10:13:08;24.00;98.10
13572;DHT22;6857;53.484;10.216;2022-07-29T10:15:37;24.00;98.30
13572;DHT22;6857;53.484;10.216;2022-07-29T10:18:05;23.90;97.50
13572;DHT22;6857;53.484;10.216;2022-07-29T10:20:32;23.80;97.70
13572;DHT22;6857;53.484;10.216;2022-07-29T10:22:58;23.80;97.70
13572;DHT22;6857;53.484;10.216;2022-07-29T10:25:24;23.80;97.60
13572;DHT22;6857;53.484;10.216;2022-07-29T10:27:51;23.90;97.50
13572;DHT22;6857;53.484;10.216;2022-07-29T10:30:17;24.00;97.60
13572;DHT22;6857;53.484;10.216;2022-07-29T10:35:40;24.30;97.30
13572;DHT22;6857;53.484;10.216;2022-07-29T10:38:41;24.50;96.70
13572;DHT22;6857;53.484;10.216;2022-07-29T10:46:25;24.80;96.50
13572;DHT22;6857;53.484;10.216;2022-07-29T10:52:05;25.00;96.40
13572;DHT22;6857;53.484;10.216;2022-07-29T10:54:48;25.10;96.00
13572;DHT22;6857;53.484;10.216;2022-07-29T10:57:22;25.00;96.30
13572;DHT22;6857;53.484;10.216;2022-07-29T11:05:06;25.20;95.80
13572;DHT22;6857;53.484;10.216;2022-07-29T11:07:34;25.30;95.60
13572;DHT22;6857;53.484;10.216;2022-07-29T11:15:10;25.30;93.00
13572;DHT22;6857;53.484;10.216;2022-07-29T11:20:43;25.60;93.90
13572;DHT22;6857;53.484;10.216;2022-07-29T11:23:29;25.60;93.40
13572;DHT22;6857;53.484;10.216;2022-07-29T11:26:14;25.70;92.80
13572;DHT22;6857;53.484;10.216;2022-07-29T11:31:39;25.70;91.60
13572;DHT22;6857;53.484;10.216;2022-07-29T11:34:26;25.80;91.00
13572;DHT22;6857;53.484;10.216;2022-07-29T11:39:34;26.00;90.50
13572;DHT22;6857;53.484;10.216;2022-07-29T11:47:23;26.50;90.00
13572;DHT22;6857;53.484;10.216;2022-07-29T11:49:53;26.50;87.80
13572;DHT22;6857;53.484;10.216;2022-07-29T11:52:20;26.50;87.00
13572;DHT22;6857;53.484;10.216;2022-07-29T11:54:48;26.80;86.50
13572;DHT22;6857;53.484;10.216;2022-07-29T11:57:19;26.70;86.50
13572;DHT22;6857;53.484;10.216;2022-07-29T11:59:46;26.50;85.90
13572;DHT22;6857;53.484;10.216;2022-07-29T12:02:14;26.20;87.40
13572;DHT22;6857;53.484;10.216;2022-07-29T12:04:56;26.30;87.10
13572;DHT22;6857;53.484;10.216;2022-07-29T12:07:29;26.40;86.10
13572;DHT22;6857;53.484;10.216;2022-07-29T12:09:54;26.30;86.10
13572;DHT22;6857;53.484;10.216;2022-07-29T12:12:21;26.50;85.90
13572;DHT22;6857;53.484;10.216;2022-07-29T12:14:47;27.10;84.50
13572;DHT22;6857;53.484;10.216;2022-07-29T12:17:30;27.30;85.00
13572;DHT22;6857;53.484;10.216;2022-07-29T12:19:57;27.20;81.50
13572;DHT22;6857;53.484;10.216;2022-07-29T12:22:34;26.90;81.60
13572;DHT22;6857;53.484;10.216;2022-07-29T12:25:11;26.80;82.80
13572;DHT22;6857;53.484;10.216;2022-07-29T12:27:37;26.90;81.90
13572;DHT22;6857;53.484;10.216;2022-07-29T12:30:07;27.00;81.00
13572;DHT22;6857;53.484;10.216;2022-07-29T12:32:41;27.00;80.70
13572;DHT22;6857;53.484;10.216;2022-07-29T12:35:15;26.80;81.90
13572;DHT22;6857;53.484;10.216;2022-07-29T12:37:43;26.70;80.50
13572;DHT22;6857;53.484;10.216;2022-07-29T12:40:11;26.60;81.10
13572;DHT22;6857;53.484;10.216;2022-07-29T12:42:38;26.90;80.10
13572;DHT22;6857;53.484;10.216;2022-07-29T12:45:04;27.40;78.50
13572;DHT22;6857;53.484;10.216;2022-07-29T12:47:30;28.00;77.60
13572;DHT22;6857;53.484;10.216;2022-07-29T12:50:13;28.60;76.40
13572;DHT22;6857;53.484;10.216;2022-07-29T12:52:43;28.90;74.30
13572;DHT22;6857;53.484;10.216;2022-07-29T12:55:10;29.30;73.60
13572;DHT22;6857;53.484;10.216;2022-07-29T12:57:49;29.40;72.00
13572;DHT22;6857;53.484;10.216;2022-07-29T13:00:22;29.10;70.50
13572;DHT22;6857;53.484;10.216;2022-07-29T13:02:58;29.40;69.10
13572;DHT22;6857;53.484;10.216;2022-07-29T13:05:24;28.90;69.30
13572;DHT22;6857;53.484;10.216;2022-07-29T13:07:49;28.70;70.50
13572;DHT22;6857;53.484;10.216;2022-07-29T13:10:19;29.10;71.20
13572;DHT22;6857;53.484;10.216;2022-07-29T13:15:29;30.10;68.80
13572;DHT22;6857;53.484;10.216;2022-07-29T13:17:54;29.60;68.10
13572;DHT22;6857;53.484;10.216;2022-07-29T13:20:24;29.30;68.10
13572;DHT22;6857;53.484;10.216;2022-07-29T13:22:50;29.30;68.70
13572;DHT22;6857;53.484;10.216;2022-07-29T13:25:27;29.00;67.90
13572;DHT22;6857;53.484;10.216;2022-07-29T13:27:54;28.80;69.00
13572;DHT22;6857;53.484;10.216;2022-07-29T13:30:20;29.20;68.60
13572;DHT22;6857;53.484;10.216;2022-07-29T13:32:46;29.40;67.10
13572;DHT22;6857;53.484;10.216;2022-07-29T13:35:12;29.90;65.50
13572;DHT22;6857;53.484;10.216;2022-07-29T13:37:38;29.60;65.30
13572;DHT22;6857;53.484;10.216;2022-07-29T13:40:08;29.30;65.90
13572;DHT22;6857;53.484;10.216;2022-07-29T13:42:34;29.70;64.70
13572;DHT22;6857;53.484;10.216;2022-07-29T13:45:00;29.90;64.70
13572;DHT22;6857;53.484;10.216;2022-07-29T13:47:27;30.00;64.20
13572;DHT22;6857;53.484;10.216;2022-07-29T13:49:52;30.00;63.20
13572;DHT22;6857;53.484;10.216;2022-07-29T13:52:19;30.20;63.80
13572;DHT22;6857;53.484;10.216;2022-07-29T13:54:45;30.40;63.60
13572;DHT22;6857;53.484;10.216;2022-07-29T13:57:11;30.40;61.80
13572;DHT22;6857;53.484;10.216;2022-07-29T13:59:38;30.70;60.60
13572;DHT22;6857;53.484;10.216;2022-07-29T14:02:04;30.80;65.50
13572;DHT22;6857;53.484;10.216;2022-07-29T14:04:31;30.70;71.50
13572;DHT22;6857;53.484;10.216;2022-07-29T14:06:56;30.10;75.30
13572;DHT22;6857;53.484;10.216;2022-07-29T14:09:22;29.70;76.50
13572;DHT22;6857;53.484;10.216;2022-07-29T14:11:48;29.50;78.10
13572;DHT22;6857;53.484;10.216;2022-07-29T14:14:15;29.70;77.20
13572;DHT22;6857;53.484;10.216;2022-07-29T14:16:41;29.70;76.60
13572;DHT22;6857;53.484;10.216;2022-07-29T14:19:06;29.70;76.80
13572;DHT22;6857;53.484;10.216;2022-07-29T14:21:32;29.80;76.60
13572;DHT22;6857;53.484;10.216;2022-07-29T14:23:58;29.90;75.30
13572;DHT22;6857;53.484;10.216;2022-07-29T14:26:24;30.00;74.70
13572;DHT22;6857;53.484;10.216;2022-07-29T14:28:50;30.20;74.60
13572;DHT22;6857;53.484;10.216;2022-07-29T14:31:15;30.30;75.00
13572;DHT22;6857;53.484;10.216;2022-07-29T14:33:41;30.00;75.40
13572;DHT22;6857;53.484;10.216;2022-07-29T14:36:08;29.70;76.90
13572;DHT22;6857;53.484;10.216;2022-07-29T14:38:34;29.60;78.60
13572;DHT22;6857;53.484;10.216;2022-07-29T14:41:00;29.70;78.30
13572;DHT22;6857;53.484;10.216;2022-07-29T14:43:26;29.80;77.10
13572;DHT22;6857;53.484;10.216;2022-07-29T14:45:51;29.80;77.50
13572;DHT22;6857;53.484;10.216;2022-07-29T14:48:17;30.10;77.10
13572;DHT22;6857;53.484;10.216;2022-07-29T14:50:42;30.50;74.70
13572;DHT22;6857;53.484;10.216;2022-07-29T14:53:08;30.40;74.50
13572;DHT22;6857;53.484;10.216;2022-07-29T14:55:34;30.50;75.90
13572;DHT22;6857;53.484;10.216;2022-07-29T14:58:00;30.40;76.00
13572;DHT22;6857;53.484;10.216;2022-07-29T15:00:26;30.20;76.80
13572;DHT22;6857;53.484;10.216;2022-07-29T15:02:52;30.60;75.40
13572;DHT22;6857;53.484;10.216;2022-07-29T15:05:17;31.00;74.60
13572;DHT22;6857;53.484;10.216;2022-07-29T15:07:43;31.00;72.30
13572;DHT22;6857;53.484;10.216;2022-07-29T15:10:08;30.90;73.10
13572;DHT22;6857;53.484;10.216;2022-07-29T15:12:34;30.70;73.80
13572;DHT22;6857;53.484;10.216;2022-07-29T15:15:00;30.60;74.00
13572;DHT22;6857;53.484;10.216;2022-07-29T15:17:25;30.60;74.40
13572;DHT22;6857;53.484;10.216;2022-07-29T15:19:51;30.50;74.40
13572;DHT22;6857;53.484;10.216;2022-07-29T15:22:17;30.10;75.30
13572;DHT22;6857;53.484;10.216;2022-07-29T15:24:42;29.40;77.10
13572;DHT22;6857;53.484;10.216;2022-07-29T15:27:08;28.60;79.20
13572;DHT22;6857;53.484;10.216;2022-07-29T15:29:42;28.10;80.40
13572;DHT22;6857;53.484;10.216;2022-07-29T15:32:08;27.90;82.30
13572;DHT22;6857;53.484;10.216;2022-07-29T15:34:34;28.20;82.90
13572;DHT22;6857;53.484;10.216;2022-07-29T15:37:00;28.20;83.40
13572;DHT22;6857;53.484;10.216;2022-07-29T15:39:26;28.00;83.10
13572;DHT22;6857;53.484;10.216;2022-07-29T15:41:52;27.70;83.20
13572;DHT22;6857;53.484;10.216;2022-07-29T15:44:18;27.70;83.20
13572;DHT22;6857;53.484;10.216;2022-07-29T15:46:43;27.60;83.50
13572;DHT22;6857;53.484;10.216;2022-07-29T15:49:32;27.80;83.70
13572;DHT22;6857;53.484;10.216;2022-07-29T15:52:02;27.70;84.00
13572;DHT22;6857;53.484;10.216;2022-07-29T15:54:29;27.30;85.40
13572;DHT22;6857;53.484;10.216;2022-07-29T15:56:55;27.00;87.00
13572;DHT22;6857;53.484;10.216;2022-07-29T15:59:21;26.60;88.60
13572;DHT22;6857;53.484;10.216;2022-07-29T16:01:47;26.10;89.70
13572;DHT22;6857;53.484;10.216;2022-07-29T16:04:13;26.00;90.40
13572;DHT22;6857;53.484;10.216;2022-07-29T16:06:39;26.00;90.80
13572;DHT22;6857;53.484;10.216;2022-07-29T16:09:05;26.10;91.00
13572;DHT22;6857;53.484;10.216;2022-07-29T16:11:31;26.20;91.20
13572;DHT22;6857;53.484;10.216;2022-07-29T16:13:57;26.20;91.40
13572;DHT22;6857;53.484;10.216;2022-07-29T16:16:23;26.10;91.90
13572;DHT22;6857;53.484;10.216;2022-07-29T16:18:48;26.20;91.80